Terminal Aerodrome Forecast
Issued by NWS

Home | Current Version | Previous Version | Text Only | Print | Product List | Glossary On
Versions: 1 2 3 4 5 6 7 8 9 10 11 12 13 14 15 16 17 18 19 20 21 22 23 24 25 26 27
000
FTUS46 KLOX 241138
TAFOXR
TAF
KOXR 241138Z 2412/2512 VRB03KT P6SM FEW015 SCT250
     FM242000 26012KT P6SM BKN250
     FM250300 28012KT P6SM OVC100
     FM250900 27008KT P6SM VCSH SCT015 BKN025=

USA.gov is the U.S. government's official web portal to all federal, state and local government web resources and services.